In Rescue
 
Open Full Screen Window  High Contrast Mode
Wind Gusting 25 knots
03
May 27, 2024 1:35 PM CDT
Present Weather: Thunderstorms in the Vicinity
Weather Information
Wind Direction
  260 °
Wind Speed
  03 kt (3 mph)
Wind Gust
  25 kt (29 mph)
Altimeter
29.86 in
Visibility
5 SM
Temperature
13° C
55° F
Dewpoint
09° C
48° F
Humidity
77%
Sky Condition
Missing
MVFR

METAR KMWM 271835Z AUTO 26003G25KT 5SM VCTSRA 13/09 A2986 RMK AO2 LTG DSNT E THRU S

FAA Disclaimer: The data displayed is for advisory purposes only and is not to be used for flight planning or operations.
Missing Cloud Data